createdAt,value
2022-09-16T00:01:22.496Z,99.90
2022-09-16T00:05:24.523Z,99.90
2022-09-16T00:09:25.627Z,99.90
2022-09-16T00:13:27.116Z,99.90
2022-09-16T00:17:29.414Z,99.90
2022-09-16T00:21:31.111Z,99.90
2022-09-16T00:25:32.306Z,99.90
2022-09-16T00:29:34.390Z,99.90
2022-09-16T00:33:35.602Z,99.90
2022-09-16T00:37:36.810Z,99.90
2022-09-16T00:41:38.331Z,99.90
2022-09-16T00:45:41.021Z,99.90
2022-09-16T00:49:43.321Z,99.90
2022-09-16T00:53:48.807Z,99.90
2022-09-16T00:57:51.471Z,99.90
2022-09-16T01:01:55.123Z,99.90
2022-09-16T01:05:56.737Z,99.90
2022-09-16T01:09:58.891Z,99.90
2022-09-16T01:14:03.757Z,99.90
2022-09-16T01:18:27.328Z,99.90
2022-09-16T01:22:47.619Z,99.90
2022-09-16T01:26:55.855Z,99.90
2022-09-16T01:31:17.975Z,99.90
2022-09-16T01:35:47.339Z,99.90
2022-09-16T01:40:12.081Z,99.90
2022-09-16T01:44:26.330Z,99.90
2022-09-16T01:48:37.553Z,99.90
2022-09-16T01:52:57.274Z,99.90
2022-09-16T01:57:21.476Z,99.90
2022-09-16T02:01:26.470Z,99.90
2022-09-16T02:05:40.500Z,99.90
2022-09-16T02:09:45.488Z,99.90
2022-09-16T02:13:51.177Z,99.90
2022-09-16T02:17:58.923Z,99.90
2022-09-16T02:22:03.843Z,99.90
2022-09-16T02:26:08.376Z,99.90
2022-09-16T02:30:13.435Z,99.90
2022-09-16T02:34:21.841Z,99.90
2022-09-16T02:38:26.848Z,99.90
2022-09-16T02:42:29.130Z,99.90
2022-09-16T02:46:52.613Z,99.90
2022-09-16T02:51:04.163Z,99.90
2022-09-16T02:55:37.865Z,99.90
2022-09-16T02:59:39.356Z,99.90
2022-09-16T03:03:40.539Z,99.90
2022-09-16T03:07:42.223Z,99.90
2022-09-16T03:12:02.396Z,99.90
2022-09-16T03:16:13.391Z,99.90
2022-09-16T03:20:33.598Z,99.90
2022-09-16T03:25:00.001Z,99.90
2022-09-16T03:29:05.293Z,99.90
2022-09-16T03:33:10.293Z,99.90
2022-09-16T03:37:14.875Z,99.90
2022-09-16T03:41:17.795Z,99.90
2022-09-16T03:45:21.362Z,99.90
2022-09-16T03:49:22.552Z,99.90
2022-09-16T03:53:23.732Z,99.90
2022-09-16T03:57:26.734Z,99.90
2022-09-16T04:01:28.021Z,99.90
2022-09-16T04:05:29.329Z,99.90
2022-09-16T04:09:30.499Z,99.90
2022-09-16T04:13:35.422Z,99.90
2022-09-16T04:17:36.579Z,99.90
2022-09-16T04:21:38.037Z,99.90
2022-09-16T04:25:40.334Z,99.90
2022-09-16T04:29:41.709Z,99.90
2022-09-16T04:33:42.890Z,99.90
2022-09-16T04:37:43.965Z,99.90
2022-09-16T04:41:45.151Z,99.90
2022-09-16T04:45:46.338Z,99.90
2022-09-16T04:49:47.527Z,99.90
2022-09-16T04:53:49.536Z,99.90
2022-09-16T04:57:51.715Z,99.90
2022-09-16T05:01:52.958Z,99.90
2022-09-16T05:05:54.207Z,99.90
2022-09-16T05:09:55.705Z,99.90
2022-09-16T05:14:05.700Z,99.90
2022-09-16T05:18:06.896Z,99.90
2022-09-16T05:22:08.076Z,99.90
2022-09-16T05:26:12.384Z,99.90
2022-09-16T05:30:15.179Z,99.90
2022-09-16T05:34:19.307Z,99.90
2022-09-16T05:38:20.494Z,99.90
2022-09-16T05:42:21.604Z,99.90
2022-09-16T05:46:23.539Z,99.90
2022-09-16T05:50:24.678Z,99.90
2022-09-16T05:54:25.859Z,99.90
2022-09-16T05:58:28.777Z,99.90
2022-09-16T06:02:30.052Z,99.90
2022-09-16T06:06:34.511Z,99.90
2022-09-16T06:10:40.282Z,99.90
2022-09-16T06:14:41.464Z,99.90
2022-09-16T06:18:42.766Z,99.90
2022-09-16T06:22:44.050Z,99.90
2022-09-16T06:26:46.759Z,99.90
2022-09-16T06:30:47.968Z,99.90
2022-09-16T06:34:49.564Z,99.90
2022-09-16T06:38:51.231Z,99.90
2022-09-16T06:42:58.231Z,99.90
2022-09-16T06:46:56.895Z,99.90
2022-09-16T06:51:03.488Z,99.90
2022-09-16T06:55:05.197Z,99.90
2022-09-16T06:59:06.898Z,99.90
2022-09-16T07:03:08.611Z,99.90
2022-09-16T07:07:10.756Z,99.90
2022-09-16T07:11:18.536Z,99.90
2022-09-16T07:15:19.721Z,99.90
2022-09-16T07:19:21.236Z,99.90
2022-09-16T07:23:22.470Z,99.90
2022-09-16T07:27:23.636Z,99.90
2022-09-16T07:31:27.041Z,99.90
2022-09-16T07:35:28.312Z,99.90
2022-09-16T07:39:29.522Z,99.90
2022-09-16T07:43:30.694Z,99.90
2022-09-16T07:47:32.175Z,99.90
2022-09-16T07:51:33.969Z,99.90
2022-09-16T07:55:35.653Z,99.90
2022-09-16T07:59:36.834Z,99.90
2022-09-16T08:03:40.241Z,99.90
2022-09-16T08:07:41.429Z,99.90
2022-09-16T08:11:42.625Z,99.90
2022-09-16T08:15:43.930Z,99.90
2022-09-16T08:19:45.125Z,99.90
2022-09-16T08:23:46.608Z,99.90
2022-09-16T08:27:47.810Z,99.90
2022-09-16T08:31:49.027Z,99.90
2022-09-16T08:36:00.753Z,99.90
2022-09-16T08:40:04.637Z,99.90
2022-09-16T08:44:24.665Z,99.90
2022-09-16T08:48:41.636Z,99.90
2022-09-16T08:52:44.741Z,99.90
2022-09-16T08:56:48.930Z,99.90
2022-09-16T09:01:02.763Z,99.90
2022-09-16T09:05:20.148Z,92.90
2022-09-16T09:09:43.150Z,91.50
2022-09-16T09:13:53.930Z,94.10
2022-09-16T09:18:04.613Z,85.30
2022-09-16T09:22:33.352Z,82.90
2022-09-16T09:26:44.450Z,82.80
2022-09-16T09:30:49.426Z,76.10
2022-09-16T09:35:15.409Z,69.50
2022-09-16T09:39:46.110Z,75.40
2022-09-16T09:43:57.212Z,68.00
2022-09-16T09:48:05.222Z,67.60
2022-09-16T09:52:19.312Z,65.30
2022-09-16T09:56:24.323Z,64.30
2022-09-16T10:00:25.504Z,69.50
2022-09-16T10:04:30.308Z,73.40
2022-09-16T10:08:51.531Z,78.30
2022-09-16T10:12:53.799Z,67.10
2022-09-16T10:16:55.313Z,68.70
2022-09-16T10:21:00.288Z,73.90
2022-09-16T10:25:08.536Z,80.50
2022-09-16T10:29:18.833Z,78.40
2022-09-16T10:33:26.823Z,83.90
2022-09-16T10:37:28.148Z,84.50
2022-09-16T10:41:35.904Z,90.30
2022-09-16T10:45:40.949Z,90.20
2022-09-16T10:49:48.895Z,94.30
2022-09-16T10:54:02.703Z,90.10
2022-09-16T11:02:17.913Z,91.30
2022-09-16T11:06:22.975Z,88.90
2022-09-16T11:10:37.152Z,85.70
2022-09-16T11:14:58.484Z,83.30
2022-09-16T11:19:12.308Z,81.50
2022-09-16T11:23:27.552Z,82.90
2022-09-16T11:27:47.316Z,80.10
2022-09-16T11:32:10.223Z,77.60
2022-09-16T11:36:21.320Z,76.60
2022-09-16T11:40:26.420Z,77.90
2022-09-16T11:44:40.606Z,84.60
2022-09-16T11:49:05.047Z,78.60
2022-09-16T11:53:16.878Z,75.80
2022-09-16T11:57:22.655Z,83.70
2022-09-16T12:01:40.045Z,83.10
2022-09-16T12:05:45.183Z,72.90
2022-09-16T12:09:50.188Z,71.90
2022-09-16T12:14:05.917Z,66.90
2022-09-16T12:18:26.247Z,69.10
2022-09-16T12:22:31.381Z,68.30
2022-09-16T12:26:51.268Z,71.60
2022-09-16T12:31:01.984Z,99.90
2022-09-16T12:35:07.057Z,99.90
2022-09-16T12:39:11.054Z,99.90
2022-09-16T12:43:37.187Z,99.90
2022-09-16T12:47:51.146Z,99.90
2022-09-16T12:52:24.903Z,99.90
2022-09-16T12:56:48.007Z,99.90
2022-09-16T13:01:14.264Z,99.90
2022-09-16T13:05:22.496Z,99.90
2022-09-16T13:09:27.456Z,99.90
2022-09-16T13:13:38.596Z,99.90
2022-09-16T13:17:40.133Z,99.90
2022-09-16T13:21:46.867Z,99.90
2022-09-16T13:25:51.925Z,99.90
2022-09-16T13:30:12.204Z,99.90
2022-09-16T13:34:16.285Z,99.90
2022-09-16T13:38:21.248Z,99.90
2022-09-16T13:42:24.276Z,99.90
2022-09-16T13:46:29.347Z,99.90
2022-09-16T13:50:30.884Z,99.90
2022-09-16T13:54:48.083Z,99.90
2022-09-16T13:58:57.793Z,99.90
2022-09-16T14:03:27.472Z,99.90
2022-09-16T14:07:52.791Z,99.90
2022-09-16T14:12:03.604Z,99.90
2022-09-16T14:16:11.341Z,99.90
2022-09-16T14:20:15.706Z,99.90
2022-09-16T14:24:19.621Z,99.90
2022-09-16T14:28:26.776Z,99.90
2022-09-16T14:32:31.145Z,99.90
2022-09-16T14:36:37.148Z,99.90
2022-09-16T14:40:40.150Z,99.90
2022-09-16T14:44:50.652Z,99.90
2022-09-16T14:48:52.178Z,99.90
2022-09-16T14:53:00.190Z,99.90
2022-09-16T14:57:05.158Z,99.90
2022-09-16T15:01:13.428Z,99.90
2022-09-16T15:05:18.534Z,99.90
2022-09-16T15:09:26.585Z,99.90
2022-09-16T15:13:31.590Z,99.90
2022-09-16T15:17:32.873Z,99.90
2022-09-16T15:21:37.406Z,99.90
2022-09-16T15:25:38.598Z,99.90
2022-09-16T15:29:50.952Z,99.90
2022-09-16T15:33:54.245Z,99.90
2022-09-16T15:37:55.488Z,99.90
2022-09-16T15:42:15.778Z,99.90
2022-09-16T15:46:22.199Z,99.90
2022-09-16T15:50:25.392Z,99.90
2022-09-16T15:54:30.601Z,99.90
2022-09-16T15:58:37.629Z,99.90
2022-09-16T16:02:45.764Z,99.90
2022-09-16T16:06:56.450Z,99.90
2022-09-16T16:11:10.323Z,99.90
2022-09-16T16:15:12.830Z,99.90
2022-09-16T16:19:14.318Z,99.90
2022-09-16T16:23:15.942Z,99.90
2022-09-16T16:27:17.738Z,99.90
2022-09-16T16:31:19.231Z,99.90
2022-09-16T16:35:20.510Z,99.90
2022-09-16T16:39:23.656Z,99.90
2022-09-16T16:43:24.986Z,99.90
2022-09-16T16:47:26.210Z,99.90
2022-09-16T16:51:27.490Z,99.90
2022-09-16T16:55:28.685Z,99.90
2022-09-16T16:59:30.350Z,99.90
2022-09-16T17:03:31.446Z,99.90
2022-09-16T17:07:32.670Z,99.90
2022-09-16T17:11:35.372Z,99.90
2022-09-16T17:15:36.590Z,99.90
2022-09-16T17:19:37.740Z,99.90
2022-09-16T17:23:39.344Z,99.90
2022-09-16T17:27:40.533Z,99.90
2022-09-16T17:31:42.263Z,99.90
2022-09-16T17:35:43.457Z,99.90
2022-09-16T17:39:45.145Z,99.90
2022-09-16T17:43:48.232Z,99.90
2022-09-16T17:47:49.411Z,99.90
2022-09-16T17:51:51.806Z,99.90
2022-09-16T17:55:56.854Z,99.90
2022-09-16T17:59:58.062Z,99.90
2022-09-16T18:03:59.472Z,99.90
2022-09-16T18:08:01.556Z,99.90
2022-09-16T18:12:02.746Z,99.90
2022-09-16T18:16:13.556Z,99.90
2022-09-16T18:20:14.929Z,99.90
2022-09-16T18:24:16.217Z,99.90
2022-09-16T18:28:18.805Z,99.90
2022-09-16T18:32:19.988Z,99.90
2022-09-16T18:36:24.576Z,99.90
2022-09-16T18:40:25.793Z,99.90
2022-09-16T18:44:27.438Z,99.90
2022-09-16T18:48:28.615Z,99.90
2022-09-16T18:52:29.715Z,99.90
2022-09-16T18:56:33.105Z,99.90
2022-09-16T19:00:34.315Z,99.90
2022-09-16T19:04:40.915Z,99.90
2022-09-16T19:08:42.121Z,99.90
2022-09-16T19:12:43.299Z,99.90
2022-09-16T19:16:45.292Z,99.90
2022-09-16T19:20:46.473Z,99.90
2022-09-16T19:24:48.481Z,99.90
2022-09-16T19:28:49.669Z,99.90
2022-09-16T19:32:50.891Z,99.90
2022-09-16T19:36:56.540Z,99.90
2022-09-16T19:41:02.864Z,99.90
2022-09-16T19:45:04.652Z,99.90
2022-09-16T19:49:06.180Z,99.90
2022-09-16T19:53:07.348Z,99.90
2022-09-16T19:57:08.936Z,99.90
2022-09-16T20:01:17.222Z,99.90
2022-09-16T20:05:18.368Z,99.90
2022-09-16T20:09:19.451Z,99.90
2022-09-16T20:13:22.227Z,99.90
2022-09-16T20:17:23.420Z,99.90
2022-09-16T20:21:26.133Z,99.90
2022-09-16T20:25:27.362Z,99.90
2022-09-16T20:29:28.468Z,99.90
2022-09-16T20:33:33.255Z,99.90
2022-09-16T20:37:32.655Z,99.90
2022-09-16T20:41:35.038Z,99.90
2022-09-16T20:45:36.387Z,99.90
2022-09-16T20:49:37.608Z,99.90
2022-09-16T20:53:39.790Z,99.90
2022-09-16T20:57:40.983Z,99.90
2022-09-16T21:01:42.764Z,99.90
2022-09-16T21:05:44.004Z,99.90
2022-09-16T21:09:45.619Z,99.90
2022-09-16T21:13:53.263Z,99.90
2022-09-16T21:17:54.473Z,99.90
2022-09-16T21:21:56.004Z,99.90
2022-09-16T21:26:05.599Z,99.90
2022-09-16T21:30:08.861Z,99.90
2022-09-16T21:34:13.664Z,99.90
2022-09-16T21:38:15.180Z,99.90
2022-09-16T21:42:16.308Z,99.90
2022-09-16T21:46:19.492Z,99.90
2022-09-16T21:50:20.703Z,99.90
2022-09-16T21:54:23.346Z,99.90
2022-09-16T21:58:24.515Z,99.90
2022-09-16T22:02:28.991Z,99.90
2022-09-16T22:06:29.130Z,99.90
2022-09-16T22:10:30.544Z,99.90
2022-09-16T22:14:31.852Z,99.90
2022-09-16T22:18:39.240Z,99.90
2022-09-16T22:22:40.447Z,99.90
2022-09-16T22:26:43.002Z,99.90
2022-09-16T22:30:44.585Z,99.90
2022-09-16T22:34:47.081Z,99.90
2022-09-16T22:38:51.375Z,99.90
2022-09-16T22:42:53.349Z,99.90
2022-09-16T22:46:54.560Z,99.90
2022-09-16T22:50:57.430Z,99.90
2022-09-16T22:54:58.716Z,99.90
2022-09-16T22:59:03.435Z,99.90
2022-09-16T23:03:04.709Z,99.90
2022-09-16T23:07:07.693Z,99.90
2022-09-16T23:11:15.031Z,99.90
2022-09-16T23:15:16.608Z,99.90
2022-09-16T23:19:21.394Z,99.90
2022-09-16T23:23:25.131Z,99.90
2022-09-16T23:27:26.302Z,99.90
2022-09-16T23:31:31.160Z,99.90
2022-09-16T23:35:32.294Z,99.90
2022-09-16T23:39:33.517Z,99.90
2022-09-16T23:43:35.515Z,99.90
2022-09-16T23:47:36.591Z,99.90
2022-09-16T23:51:37.702Z,99.90
2022-09-16T23:55:43.857Z,99.90
2022-09-16T23:59:45.144Z,99.90
